PILOTS ONLINE: 275    ATC ONLINE: 39

KOTH - Southwest Oregon Regional Airport

Location

IATA OTH
City North Bend
Country  United States
Latitude 43° 25' 1" N
Longitude 124° 14' 45" W
Elevation 17 ft
Type Medium Airport

Runways

04/22 5321 ft / 150 ft
13/31 4471 ft / 150 ft

Weather

METAR
2014/08/01 09:35
KOTH 010935Z 35007KT 10SM OVC012 13/13 A3006 RMK AO1
TAF
2014/08/01 10:48
TAF 
      AMD KOTH 010944Z 0110/0206 35007KT P6SM OVC013 
     FM011200 35008KT P6SM OVC005 
     FM011800 36010KT P6SM SKC 
     FM012000 36018G30KT P6SM SKC 
     FM020400 36010KT P6SM BKN007

Outbound flights

Inbound flights